Time;durP1;ratioP1;P1;durP2;ratioP2;P2;SDS_P1;SDS_P2;PMS_P1;PMS_P2;Temp;Humidity;BMP_temperature;BMP_pressure;BME280_temperature;BME280_humidity;BME280_pressure;Samples;Min_cycle;Max_cycle;Signal;HPM_P1;HPM_P2
2022/10/23 00:00:28;;;;;;;7.37;2.90;;;;;;;10.72;100.00;100237.31;5073855;28;20189;-73
2022/10/23 00:02:53;;;;;;;5.07;2.40;;;;;;;10.68;100.00;100233.03;5068570;28;20223;-74
2022/10/23 00:05:20;;;;;;;4.33;2.50;;;;;;;10.66;100.00;100238.19;5068375;28;20194;-74
2022/10/23 00:07:52;;;;;;;4.17;2.73;;;;;;;10.66;100.00;100240.78;5074022;28;20197;-74
2022/10/23 00:10:19;;;;;;;4.80;2.43;;;;;;;10.68;100.00;100240.78;5069509;28;20187;-75
2022/10/23 00:12:46;;;;;;;4.33;2.53;;;;;;;10.66;100.00;100238.19;5073778;28;20210;-74
2022/10/23 00:15:12;;;;;;;3.23;2.13;;;;;;;10.66;100.00;100238.19;5066235;28;20305;-74
2022/10/23 00:17:37;;;;;;;3.90;2.17;;;;;;;10.66;100.00;100238.19;5077580;28;20193;-73
2022/10/23 00:20:05;;;;;;;2.90;2.57;;;;;;;10.66;100.00;100235.59;5068594;28;20186;-73
2022/10/23 00:22:30;;;;;;;3.77;2.43;;;;;;;10.65;100.00;100231.34;5072337;28;20205;-73
2022/10/23 00:24:56;;;;;;;4.10;2.60;;;;;;;10.65;100.00;100222.69;5067747;28;20186;-73
2022/10/23 00:27:21;;;;;;;3.87;2.60;;;;;;;10.64;100.00;100224.44;5071942;28;20176;-73
2022/10/23 00:29:46;;;;;;;4.17;2.60;;;;;;;10.61;100.00;100227.06;5072191;28;20268;-73
2022/10/23 00:32:11;;;;;;;2.97;2.63;;;;;;;10.60;100.00;100227.06;5074217;28;20350;-73
2022/10/23 00:34:37;;;;;;;3.37;2.67;;;;;;;10.58;100.00;100227.09;5069342;28;21022;-73
2022/10/23 00:37:02;;;;;;;4.93;2.90;;;;;;;10.55;100.00;100227.09;5074362;28;20185;-73
2022/10/23 00:39:28;;;;;;;4.30;3.53;;;;;;;10.52;100.00;100228.00;5076589;28;20209;-73
2022/10/23 00:41:54;;;;;;;6.43;4.67;;;;;;;10.49;100.00;100228.03;5081951;28;20199;-73
2022/10/23 00:44:19;;;;;;;7.63;4.80;;;;;;;10.47;100.00;100231.50;5070133;28;20179;-74
2022/10/23 00:46:45;;;;;;;6.63;4.80;;;;;;;10.44;100.00;100229.78;5072067;28;20189;-74
2022/10/23 00:49:11;;;;;;;5.43;3.73;;;;;;;10.44;100.00;100221.19;5082848;28;20177;-74
2022/10/23 00:51:41;;;;;;;4.53;3.87;;;;;;;10.42;100.00;100220.34;5081068;28;20232;-74
2022/10/23 00:54:08;;;;;;;4.53;3.80;;;;;;;10.40;100.00;100230.72;5074128;28;20780;-73
2022/10/23 00:56:36;;;;;;;5.63;3.73;;;;;;;10.39;100.00;100230.69;5081148;28;20182;-74
2022/10/23 00:59:05;;;;;;;5.07;3.33;;;;;;;10.39;100.00;100228.13;5079171;28;20307;-75
2022/10/23 01:01:30;;;;;;;4.17;3.77;;;;;;;10.37;100.00;100228.97;5075741;28;20198;-73
2022/10/23 01:03:56;;;;;;;5.50;3.20;;;;;;;10.37;100.00;100223.78;5076542;28;20200;-73
2022/10/23 01:06:35;;;;;;;4.37;3.10;;;;;;;10.40;100.00;100222.06;5082187;28;20200;-73
2022/10/23 01:09:48;;;;;;;5.20;3.43;;;;;;;10.41;100.00;100222.06;5084938;28;20695;-73
2022/10/23 01:12:48;;;;;;;8.27;3.13;;;;;;;10.48;100.00;100209.94;5054854;28;20227;-74
2022/10/23 01:15:29;;;;;;;4.07;2.87;;;;;;;10.54;100.00;100209.88;5075519;28;20216;-74
2022/10/23 01:18:10;;;;;;;3.57;2.53;;;;;;;10.56;100.00;100204.69;5082149;28;20196;-74
2022/10/23 01:20:48;;;;;;;3.07;2.77;;;;;;;10.52;100.00;100207.31;5082057;28;20582;-74
2022/10/23 01:23:39;;;;;;;3.00;2.67;;;;;;;10.49;100.00;100196.13;5074077;28;20259;-74
2022/10/23 01:26:43;;;;;;;3.67;3.03;;;;;;;10.43;100.00;100207.41;5075124;28;20560;-74
2022/10/23 01:29:30;;;;;;;3.53;2.53;;;;;;;10.37;100.00;100210.84;5071852;28;20197;-74
2022/10/23 01:32:13;;;;;;;3.30;2.90;;;;;;;10.36;100.00;100213.47;5081884;28;20204;-74
2022/10/23 01:34:47;;;;;;;3.13;2.60;;;;;;;10.33;100.00;100216.94;5074677;28;20690;-74
2022/10/23 01:37:18;;;;;;;3.60;3.00;;;;;;;10.31;100.00;100216.09;5079623;28;20182;-74
2022/10/23 01:39:48;;;;;;;4.20;2.30;;;;;;;10.27;100.00;100205.78;5081432;28;20190;-74
2022/10/23 01:42:18;;;;;;;4.43;2.67;;;;;;;10.25;100.00;100207.53;5081974;28;20262;-73
2022/10/23 01:44:45;;;;;;;2.67;2.47;;;;;;;10.22;100.00;100205.81;5073444;28;20184;-74
2022/10/23 01:47:14;;;;;;;4.43;2.70;;;;;;;10.21;100.00;100204.97;5077047;28;20178;-74
2022/10/23 01:49:41;;;;;;;4.10;3.17;;;;;;;10.19;100.00;100191.19;5085711;28;20196;-74
2022/10/23 01:52:12;;;;;;;4.87;3.30;;;;;;;10.22;100.00;100196.34;5077388;28;20214;-74
2022/10/23 01:54:41;;;;;;;3.27;2.57;;;;;;;10.24;100.00;100198.91;5078439;28;20212;-73
2022/10/23 01:57:12;;;;;;;3.43;2.97;;;;;;;10.27;100.00;100185.09;5081277;28;21822;-74
2022/10/23 01:59:43;;;;;;;3.00;2.80;;;;;;;10.29;100.00;100180.75;5078215;28;20189;-74
2022/10/23 02:02:10;;;;;;;3.07;2.77;;;;;;;10.29;100.00;100171.28;5074726;28;20205;-73
2022/10/23 02:04:41;;;;;;;3.43;2.93;;;;;;;10.30;100.00;100175.56;5075884;28;20189;-74
2022/10/23 02:07:07;;;;;;;3.60;2.83;;;;;;;10.29;100.00;100168.69;5075778;28;20234;-73
2022/10/23 02:09:32;;;;;;;2.93;2.53;;;;;;;10.29;100.00;100173.88;5079382;28;20211;-73
2022/10/23 02:12:07;;;;;;;3.27;2.80;;;;;;;10.31;100.00;100182.47;5074781;28;22251;-72
2022/10/23 02:14:58;;;;;;;3.07;2.80;;;;;;;10.30;100.00;100178.16;5073949;28;21005;-73
2022/10/23 02:17:26;;;;;;;4.03;2.43;;;;;;;10.31;100.00;100166.06;5073001;28;20228;-73
2022/10/23 02:20:02;;;;;;;4.03;2.77;;;;;;;10.29;100.00;100160.94;5075986;28;20181;-74
2022/10/23 02:22:33;;;;;;;5.00;2.60;;;;;;;10.29;100.00;100157.47;5076516;28;20728;-74
2022/10/23 02:25:09;;;;;;;4.43;2.60;;;;;;;10.29;100.00;100163.50;5081455;28;20186;-74
2022/10/23 02:27:45;;;;;;;4.07;2.50;;;;;;;10.28;100.00;100160.97;5078084;28;20301;-74
2022/10/23 02:30:14;;;;;;;3.37;2.27;;;;;;;10.28;100.00;100150.59;5077368;28;20184;-73
2022/10/23 02:32:49;;;;;;;6.87;3.10;;;;;;;10.27;100.00;100154.06;5073705;28;20205;-73
2022/10/23 02:35:17;;;;;;;3.10;2.33;;;;;;;10.25;100.00;100150.63;5076947;28;20744;-73
2022/10/23 02:37:42;;;;;;;5.50;2.80;;;;;;;10.25;100.00;100156.66;5074262;28;20261;-73
2022/10/23 02:40:09;;;;;;;2.87;2.57;;;;;;;10.27;100.00;100159.25;5081319;28;20665;-73
2022/10/23 02:42:55;;;;;;;3.37;2.70;;;;;;;10.26;100.00;100160.09;5073303;28;20792;-73
2022/10/23 02:45:33;;;;;;;4.93;2.70;;;;;;;10.24;100.00;100154.09;5071776;28;20186;-75
2022/10/23 02:48:04;;;;;;;3.57;2.60;;;;;;;10.22;100.00;100143.75;5078160;28;20189;-73
2022/10/23 02:50:52;;;;;;;4.43;2.63;;;;;;;10.25;100.00;100151.47;5077216;28;20204;-74
2022/10/23 02:53:24;;;;;;;4.57;2.60;;;;;;;10.28;100.00;100142.84;5074041;28;20187;-74
2022/10/23 02:56:10;;;;;;;2.70;2.50;;;;;;;10.32;100.00;100137.63;5076243;28;20242;-73
2022/10/23 02:58:44;;;;;;;4.17;2.60;;;;;;;10.33;100.00;100135.88;5079306;28;20197;-73
2022/10/23 03:01:14;;;;;;;2.50;2.30;;;;;;;10.33;100.00;100138.47;5079239;28;20203;-75
2022/10/23 03:03:52;;;;;;;3.00;2.70;;;;;;;10.35;100.00;100132.44;5081881;28;20756;-72
2022/10/23 03:06:18;;;;;;;3.93;2.47;;;;;;;10.33;100.00;100130.72;5083125;28;20195;-73
2022/10/23 03:08:57;;;;;;;3.33;2.43;;;;;;;10.31;100.00;100133.31;5086767;28;20185;-74
2022/10/23 03:11:22;;;;;;;3.67;2.23;;;;;;;10.30;100.00;100125.56;5079881;28;20205;-74
2022/10/23 03:13:47;;;;;;;3.10;2.37;;;;;;;10.31;100.00;100125.56;5089883;28;20200;-73
2022/10/23 03:16:13;;;;;;;3.33;2.40;;;;;;;10.31;100.00;100130.72;5083255;28;20644;-74
2022/10/23 03:18:38;;;;;;;4.43;2.10;;;;;;;10.33;100.00;100133.28;5070273;28;20192;-73
2022/10/23 03:21:03;;;;;;;3.00;2.20;;;;;;;10.34;100.00;100132.44;5076414;28;20197;-73
2022/10/23 03:23:29;;;;;;;2.67;2.20;;;;;;;10.39;100.00;100133.28;5079912;28;20296;-74
2022/10/23 03:25:55;;;;;;;3.13;1.93;;;;;;;10.42;100.00;100134.97;5078614;28;20184;-74
2022/10/23 03:28:21;;;;;;;3.67;2.43;;;;;;;10.43;100.00;100122.03;5079512;28;20213;-74
2022/10/23 03:30:46;;;;;;;3.63;2.30;;;;;;;10.44;100.00;100113.38;5077085;28;20205;-74
2022/10/23 03:33:12;;;;;;;2.87;2.30;;;;;;;10.44;100.00;100115.94;5080408;28;20181;-73
2022/10/23 03:35:37;;;;;;;4.70;2.23;;;;;;;10.41;100.00;100112.53;5073639;28;20190;-74
2022/10/23 03:38:02;;;;;;;3.10;2.33;;;;;;;10.37;100.00;100119.47;5071201;28;20185;-73
2022/10/23 03:40:28;;;;;;;3.03;2.03;;;;;;;10.35;100.00;100116.03;5069484;28;20223;-74
2022/10/23 03:42:53;;;;;;;3.40;2.00;;;;;;;10.34;100.00;100127.25;5070125;28;20742;-74
2022/10/23 03:45:19;;;;;;;2.40;2.20;;;;;;;10.35;100.00;100123.78;5073147;28;20204;-74
2022/10/23 03:47:44;;;;;;;4.27;2.27;;;;;;;10.35;100.00;100106.56;5073677;28;20186;-74
2022/10/23 03:50:10;;;;;;;3.67;2.40;;;;;;;10.33;100.00;100113.47;5076744;28;20267;-73
2022/10/23 03:52:36;;;;;;;3.33;2.07;;;;;;;10.31;100.00;100107.47;5073318;28;20218;-74
2022/10/23 03:55:02;;;;;;;2.63;2.17;;;;;;;10.29;100.00;100105.75;5070078;28;20205;-74
2022/10/23 03:57:27;;;;;;;3.07;2.13;;;;;;;10.27;100.00;100102.34;5072510;28;20185;-73
2022/10/23 03:59:52;;;;;;;4.90;2.33;;;;;;;10.27;100.00;100100.59;5076195;28;20595;-74
2022/10/23 04:02:18;;;;;;;2.77;2.13;;;;;;;10.30;100.00;100090.22;5084170;28;20208;-74
2022/10/23 04:04:43;;;;;;;2.80;2.10;;;;;;;10.35;100.00;100100.50;5086005;28;20200;-74
2022/10/23 04:07:09;;;;;;;3.37;2.30;;;;;;;10.41;100.00;100107.38;5084208;28;20181;-74
2022/10/23 04:09:34;;;;;;;4.00;2.30;;;;;;;10.46;100.00;100116.78;5076219;28;20182;-75
2022/10/23 04:12:00;;;;;;;2.63;2.00;;;;;;;10.51;100.00;100114.19;5075022;28;20217;-74
2022/10/23 04:14:25;;;;;;;3.70;2.17;;;;;;;10.55;100.00;100100.31;5081771;28;20212;-74
2022/10/23 04:16:51;;;;;;;2.57;2.37;;;;;;;10.60;100.00;100106.31;5078147;28;20692;-75
2022/10/23 04:19:16;;;;;;;5.37;2.50;;;;;;;10.62;100.00;100101.09;5083858;28;21083;-74
2022/10/23 04:21:42;;;;;;;2.07;1.87;;;;;;;10.66;100.00;100110.53;5081017;28;20209;-73
2022/10/23 04:24:07;;;;;;;2.20;1.97;;;;;;;10.68;100.00;100117.41;5077820;28;20181;-74
2022/10/23 04:26:33;;;;;;;2.27;1.90;;;;;;;10.68;100.00;100117.41;5086994;28;20750;-74
2022/10/23 04:28:58;;;;;;;3.43;2.17;;;;;;;10.70;100.00;100121.69;5080501;28;20177;-72
2022/10/23 04:31:24;;;;;;;2.60;1.80;;;;;;;10.70;100.00;100116.53;5087923;28;20275;-73
2022/10/23 04:33:49;;;;;;;2.57;2.33;;;;;;;10.72;100.00;100127.72;5082817;28;20208;-74
2022/10/23 04:36:15;;;;;;;2.60;1.87;;;;;;;10.76;100.00;100119.06;5085506;28;20277;-73
2022/10/23 04:38:40;;;;;;;3.33;2.03;;;;;;;10.78;100.00;100128.50;5076783;28;20182;-74
2022/10/23 04:41:05;;;;;;;2.13;1.93;;;;;;;10.81;100.00;100118.13;5083960;28;20209;-73
2022/10/23 04:43:31;;;;;;;5.13;2.30;;;;;;;10.84;100.00;100117.22;5079119;28;20174;-75
2022/10/23 04:45:56;;;;;;;2.43;2.20;;;;;;;10.87;100.00;100116.34;5078026;28;20274;-74
2022/10/23 04:48:21;;;;;;;2.23;2.03;;;;;;;10.90;100.00;100108.50;5080646;28;20195;-74
2022/10/23 04:50:55;;;;;;;2.50;2.30;;;;;;;10.89;100.00;100097.31;5087544;28;20177;-74
2022/10/23 04:53:20;;;;;;;3.53;2.30;;;;;;;10.86;100.00;100101.69;5078002;28;20894;-74
2022/10/23 04:55:54;;;;;;;2.50;2.30;;;;;;;10.84;100.00;100093.91;5074486;28;20200;-74
2022/10/23 04:58:20;;;;;;;3.20;2.20;;;;;;;10.82;100.00;100085.31;5081073;28;20182;-73
2022/10/23 05:00:46;;;;;;;3.13;1.93;;;;;;;10.80;100.00;100100.03;5078163;28;20194;-74
2022/10/23 05:03:12;;;;;;;4.20;2.00;;;;;;;10.76;100.00;100088.84;5070771;28;20203;-73
2022/10/23 05:05:38;;;;;;;5.33;2.20;;;;;;;10.70;100.00;100083.75;5079542;28;20185;-74
2022/10/23 05:08:03;;;;;;;2.50;2.07;;;;;;;10.63;100.00;100098.50;5054480;28;20213;-74
2022/10/23 05:10:29;;;;;;;3.27;2.00;;;;;;;10.57;100.00;100093.38;5073484;28;20541;-73
2022/10/23 05:12:54;;;;;;;3.20;2.13;;;;;;;10.54;100.00;100095.16;5071949;28;20229;-74
2022/10/23 05:15:19;;;;;;;4.27;2.43;;;;;;;10.51;100.00;100088.31;5076008;28;20309;-74
2022/10/23 05:17:48;;;;;;;2.80;2.37;;;;;;;10.49;100.00;100090.06;5076614;28;20190;-74
2022/10/23 05:20:20;;;;;;;3.10;2.80;;;;;;;10.47;100.00;100090.06;5076052;28;20182;-74
2022/10/23 05:22:49;;;;;;;3.20;2.90;;;;;;;10.46;100.00;100093.50;5076283;28;20223;-74
2022/10/23 05:25:14;;;;;;;3.30;3.00;;;;;;;10.47;100.00;100084.88;5084359;28;20292;-74
2022/10/23 05:27:40;;;;;;;3.80;2.63;;;;;;;10.47;100.00;100071.09;5079225;28;20314;-73
2022/10/23 05:30:06;;;;;;;3.43;3.13;;;;;;;10.47;100.00;100076.28;5077987;28;20197;-73
2022/10/23 05:32:32;;;;;;;6.60;3.13;;;;;;;10.44;100.00;100071.97;5080910;28;20216;-74
2022/10/23 05:35:00;;;;;;;3.37;2.90;;;;;;;10.40;100.00;100057.38;5080185;28;20230;-75
2022/10/23 05:37:25;;;;;;;2.80;2.40;;;;;;;10.34;100.00;100060.00;5079289;28;20222;-73
2022/10/23 05:39:51;;;;;;;3.17;2.60;;;;;;;10.28;100.00;100066.09;5081803;28;20205;-73
2022/10/23 05:42:16;;;;;;;4.40;2.80;;;;;;;10.22;100.00;100068.75;5080700;28;20236;-73
2022/10/23 05:44:42;;;;;;;3.80;2.60;;;;;;;10.16;100.00;100061.91;5077595;28;20210;-73
2022/10/23 05:47:07;;;;;;;3.93;2.80;;;;;;;10.12;100.00;100056.78;5075210;28;20243;-73
2022/10/23 05:49:32;;;;;;;3.33;2.73;;;;;;;10.09;100.00;100067.16;5082773;28;20265;-73
2022/10/23 05:51:58;;;;;;;4.43;3.03;;;;;;;10.05;100.00;100064.63;5080263;28;20237;-74
2022/10/23 05:54:23;;;;;;;3.10;2.73;;;;;;;10.03;100.00;100057.75;5076642;28;20252;-73
2022/10/23 05:56:48;;;;;;;5.00;3.27;;;;;;;10.00;100.00;100060.34;5077035;28;20198;-73
2022/10/23 05:59:14;;;;;;;3.23;3.00;;;;;;;9.98;100.00;100064.72;5082377;28;20220;-73
2022/10/23 06:01:39;;;;;;;3.47;3.17;;;;;;;9.97;100.00;100065.59;5081292;28;20300;-73
2022/10/23 06:04:05;;;;;;;3.57;3.27;;;;;;;9.95;100.00;100052.66;5081254;28;20190;-72
2022/10/23 06:06:30;;;;;;;3.60;3.30;;;;;;;9.94;100.00;100050.09;5080305;28;20189;-72
2022/10/23 06:08:55;;;;;;;3.67;3.37;;;;;;;9.95;100.00;100057.81;5080962;28;20213;-73
2022/10/23 06:11:21;;;;;;;4.17;3.77;;;;;;;9.94;100.00;100045.78;5077775;28;20198;-75
2022/10/23 06:13:47;;;;;;;3.87;3.47;;;;;;;9.96;100.00;100048.34;5086769;28;20215;-73
2022/10/23 06:16:15;;;;;;;3.50;3.27;;;;;;;9.97;100.00;100052.66;5080084;28;20690;-73
2022/10/23 06:18:41;;;;;;;4.10;3.37;;;;;;;9.97;100.00;100058.66;5077222;28;20198;-73
2022/10/23 06:21:06;;;;;;;4.63;2.90;;;;;;;9.97;100.00;100040.56;5078533;28;20231;-74
2022/10/23 06:23:33;;;;;;;4.20;3.07;;;;;;;9.99;100.00;100038.84;5083354;28;20190;-73
2022/10/23 06:25:58;;;;;;;3.87;2.70;;;;;;;10.02;100.00;100048.28;5084699;28;20184;-73
2022/10/23 06:28:24;;;;;;;2.70;2.50;;;;;;;10.05;100.00;100033.59;5082570;28;20195;-73
2022/10/23 06:30:49;;;;;;;3.70;2.97;;;;;;;10.10;100.00;100030.09;5091185;28;20222;-72
2022/10/23 06:33:15;;;;;;;2.77;2.57;;;;;;;10.12;100.00;100031.81;5082635;28;20213;-73
2022/10/23 06:35:40;;;;;;;3.90;2.77;;;;;;;10.16;100.00;100035.22;5085614;28;20219;-73
2022/10/23 06:38:05;;;;;;;3.10;2.80;;;;;;;10.24;100.00;100025.63;5077457;28;20277;-75
2022/10/23 06:40:30;;;;;;;4.03;2.70;;;;;;;10.30;100.00;100033.31;5077078;28;20186;-73
2022/10/23 06:42:56;;;;;;;3.23;2.83;;;;;;;10.36;100.00;100040.16;5077192;28;20213;-75
2022/10/23 06:45:21;;;;;;;3.20;2.60;;;;;;;10.44;100.00;100021.97;5077744;28;20671;-74
2022/10/23 06:47:49;;;;;;;3.00;2.40;;;;;;;10.49;100.00;100022.78;5081301;28;20195;-75
2022/10/23 06:50:15;;;;;;;3.27;2.97;;;;;;;10.56;100.00;100031.31;5079032;28;20198;-73
2022/10/23 06:52:40;;;;;;;2.87;2.57;;;;;;;10.61;100.00;100032.97;5075139;28;20209;-73
2022/10/23 06:55:06;;;;;;;3.23;2.80;;;;;;;10.66;100.00;100030.31;5080063;28;20218;-73
2022/10/23 06:57:32;;;;;;;2.60;2.40;;;;;;;10.71;100.00;100036.28;5077889;28;20555;-73
2022/10/23 06:59:58;;;;;;;3.17;2.60;;;;;;;10.77;100.00;100040.53;5077901;28;20239;-74
2022/10/23 07:02:23;;;;;;;3.07;2.47;;;;;;;10.83;100.00;100049.06;5078981;28;20235;-74
2022/10/23 07:04:48;;;;;;;2.90;2.60;;;;;;;10.92;100.00;100055.84;5073627;28;20188;-72
2022/10/23 07:07:13;;;;;;;2.90;2.60;;;;;;;11.02;100.00;100063.47;5082155;28;20187;-73
2022/10/23 07:09:39;;;;;;;5.37;2.90;;;;;;;11.08;100.00;100066.81;5078202;28;20581;-74
2022/10/23 07:12:05;;;;;;;2.77;2.53;;;;;;;11.19;100.00;100066.66;5076033;28;20274;-73
2022/10/23 07:14:31;;;;;;;3.83;2.87;;;;;;;11.28;100.00;100069.09;5071699;28;20343;-74
2022/10/23 07:16:56;;;;;;;2.93;2.73;;;;;;;11.37;100.00;100083.66;5073082;28;20186;-74
2022/10/23 07:19:22;;;;;;;3.20;2.90;;;;;;;11.44;100.00;100080.09;5078327;28;20726;-74
2022/10/23 07:21:47;;;;;;;3.87;2.90;;;;;;;11.49;100.00;100074.00;5073132;28;20702;-73
2022/10/23 07:24:12;;;;;;;3.77;3.47;;;;;;;11.53;100.00;100079.09;5072414;28;20176;-74
2022/10/23 07:26:38;;;;;;;4.93;3.30;;;;;;;11.56;100.00;100075.59;5077431;28;20186;-74
2022/10/23 07:29:03;;;;;;;3.77;2.70;;;;;;;11.62;100.00;100088.47;5069606;28;20190;-74
2022/10/23 07:31:28;;;;;;;3.80;3.47;;;;;;;11.67;100.00;100078.03;5077999;28;20221;-73
2022/10/23 07:33:54;;;;;;;4.47;3.30;;;;;;;11.71;100.00;100084.88;5070774;28;20589;-74
2022/10/23 07:36:20;;;;;;;4.20;3.30;;;;;;;11.82;100.00;100084.66;5078405;28;20265;-74
2022/10/23 07:38:45;;;;;;;3.33;3.10;;;;;;;11.92;100.00;100080.16;5079645;28;20728;-75
2022/10/23 07:41:11;;;;;;;3.40;3.10;;;;;;;12.00;100.00;100084.38;5078352;28;20222;-74
2022/10/23 07:43:37;;;;;;;3.30;3.00;;;;;;;12.10;100.00;100077.28;5073080;28;20187;-74
2022/10/23 07:46:03;;;;;;;3.27;2.97;;;;;;;12.22;100.00;100063.22;5072230;28;20704;-75
2022/10/23 07:48:28;;;;;;;3.87;2.80;;;;;;;12.33;100.00;100060.41;5075491;28;20173;-74
2022/10/23 07:51:00;;;;;;;3.93;3.13;;;;;;;12.40;100.00;100049.03;5074019;28;20906;-74
2022/10/23 07:53:25;;;;;;;3.40;3.10;;;;;;;12.42;100.00;100055.03;5072088;28;20197;-74
2022/10/23 07:55:59;;;;;;;3.70;3.40;;;;;;;12.50;100.00;100049.69;5071916;28;20739;-74
2022/10/23 07:58:25;;;;;;;3.60;3.30;;;;;;;12.61;100.00;100057.28;5071967;28;20197;-75
2022/10/23 08:01:02;;;;;;;3.23;2.87;;;;;;;12.73;100.00;100050.94;5070693;28;20238;-76
2022/10/23 08:03:31;;;;;;;4.10;3.40;;;;;;;12.80;100.00;100061.16;5072652;28;20230;-75
2022/10/23 08:05:57;;;;;;;4.00;3.60;;;;;;;12.87;100.00;100059.28;5077534;28;20747;-75
2022/10/23 08:08:23;;;;;;;3.33;3.13;;;;;;;12.90;100.00;100064.41;5074082;28;20685;-75
2022/10/23 08:10:50;;;;;;;4.23;3.60;;;;;;;12.94;100.00;100070.38;5076780;28;20182;-74
2022/10/23 08:13:16;;;;;;;3.73;3.37;;;;;;;12.97;100.00;100059.94;5071547;28;20985;-74
2022/10/23 08:15:43;;;;;;;3.43;3.13;;;;;;;13.00;100.00;100057.28;5067603;28;20213;-74
2022/10/23 08:18:09;;;;;;;5.07;2.90;;;;;;;13.07;100.00;100057.97;5074792;28;20189;-74
2022/10/23 08:20:39;;;;;;;3.87;3.57;;;;;;;13.15;100.00;100056.06;5075214;28;20181;-74
2022/10/23 08:23:05;;;;;;;3.50;3.30;;;;;;;13.23;100.00;100063.69;5067026;28;20204;-75
2022/10/23 08:25:30;;;;;;;4.57;3.67;;;;;;;13.32;100.00;100060.00;5068429;28;20687;-75
2022/10/23 08:27:55;;;;;;;3.77;3.40;;;;;;;13.45;100.00;100069.25;5070100;28;20184;-74
2022/10/23 08:30:21;;;;;;;4.43;3.17;;;;;;;13.61;100.00;100076.69;5071709;28;20235;-76
2022/10/23 08:32:46;;;;;;;4.07;3.40;;;;;;;13.72;100.00;100075.50;5079494;28;20240;-73
2022/10/23 08:35:11;;;;;;;3.23;2.87;;;;;;;13.83;100.00;100072.63;5079122;28;20215;-74
2022/10/23 08:37:37;;;;;;;3.87;3.40;;;;;;;13.94;100.00;100063.69;5070405;28;20189;-74
2022/10/23 08:40:02;;;;;;;3.63;3.30;;;;;;;14.07;100.00;100077.22;5071607;28;20245;-76
2022/10/23 08:42:28;;;;;;;3.67;3.37;;;;;;;14.20;100.00;100076.00;5077861;28;20577;-74
2022/10/23 08:45:26;;;;;;;4.93;3.77;;;;;;;14.42;100.00;100083.22;5071964;28;20318;-76
2022/10/23 08:47:57;;;;;;;4.87;3.60;;;;;;;14.60;100.00;100081.84;5072627;28;20192;-75
2022/10/23 08:50:34;;;;;;;4.23;3.33;;;;;;;14.73;100.00;100064.13;5069754;28;20193;-75
2022/10/23 08:53:20;;;;;;;3.43;3.13;;;;;;;14.89;100.00;100051.50;5075827;28;20216;-74
2022/10/23 08:55:56;;;;;;;3.07;2.50;;;;;;;15.03;100.00;100045.88;5075578;28;20194;-74
2022/10/23 08:58:30;;;;;;;2.73;2.53;;;;;;;15.18;100.00;100045.38;5082756;28;20174;-73
2022/10/23 09:00:57;;;;;;;3.57;2.70;;;;;;;15.32;100.00;100033.66;5070651;28;20191;-73
2022/10/23 09:03:22;;;;;;;3.10;2.80;;;;;;;15.44;100.00;100025.41;5071748;28;20412;-74
2022/10/23 09:05:53;;;;;;;2.93;2.63;;;;;;;15.54;100.00;100016.38;5071608;28;20903;-74
2022/10/23 09:08:45;;;;;;;3.03;2.73;;;;;;;15.69;100.00;100001.97;5077123;28;20182;-74
2022/10/23 09:11:17;;;;;;;3.07;2.77;;;;;;;15.84;100.00;99984.06;5076990;28;20202;-75
2022/10/23 09:13:57;;;;;;;2.70;2.50;;;;;;;15.98;100.00;99989.66;5071379;28;20204;-75
2022/10/23 09:16:53;;;;;;;3.07;2.30;;;;;;;16.11;100.00;99976.16;5083669;28;20197;-74
2022/10/23 09:19:25;;;;;;;3.10;2.10;;;;;;;16.13;100.00;99985.63;5077995;28;20276;-75
2022/10/23 09:21:50;;;;;;;4.67;2.30;;;;;;;16.21;100.00;99987.13;5073602;28;20715;-75
2022/10/23 09:24:18;;;;;;;4.67;2.67;;;;;;;16.23;100.00;99987.91;5065498;28;20197;-74
2022/10/23 09:26:47;;;;;;;4.67;2.10;;;;;;;16.24;100.00;99979.19;5074627;28;20201;-74
2022/10/23 09:29:24;;;;;;;2.90;2.43;;;;;;;16.29;100.00;99977.22;5072572;28;20831;-74
2022/10/23 09:31:55;;;;;;;2.73;2.53;;;;;;;16.30;100.00;99974.56;5074517;28;20216;-74
2022/10/23 09:34:24;;;;;;;2.63;2.37;;;;;;;16.36;100.00;99978.72;5072703;28;20228;-74
2022/10/23 09:36:52;;;;;;;3.37;2.70;;;;;;;16.45;100.00;99987.97;5067188;28;20199;-74
2022/10/23 09:39:25;;;;;;;3.03;2.40;;;;;;;16.54;100.00;99981.53;5071070;28;20202;-75
2022/10/23 09:41:50;;;;;;;4.80;2.50;;;;;;;16.63;100.00;99972.50;5072188;28;20214;-74
2022/10/23 09:44:16;;;;;;;3.10;2.70;;;;;;;16.73;100.00;99984.28;5067360;28;20198;-74
2022/10/23 09:46:44;;;;;;;3.83;2.20;;;;;;;16.85;100.00;99972.47;5070363;28;20291;-74
2022/10/23 09:49:27;;;;;;;2.40;1.97;;;;;;;17.03;100.00;99970.91;5072781;28;20601;-75
2022/10/23 09:52:18;;;;;;;2.63;1.80;;;;;;;17.15;100.00;99972.19;5069987;28;20216;-75
2022/10/23 09:54:54;;;;;;;2.17;1.70;;;;;;;17.30;100.00;99978.53;5067645;28;20213;-75
2022/10/23 09:57:38;;;;;;;1.93;1.43;;;;;;;17.45;100.00;99993.56;5071585;28;20215;-75
2022/10/23 10:00:25;;;;;;;2.37;1.80;;;;;;;17.60;100.00;99980.75;5070470;28;20216;-75
2022/10/23 10:03:02;;;;;;;2.00;1.80;;;;;;;17.68;100.00;99979.50;5072508;28;20790;-75
2022/10/23 10:05:36;;;;;;;2.03;1.70;;;;;;;17.68;100.00;99976.03;5068588;28;20241;-75
2022/10/23 10:08:07;;;;;;;3.27;1.83;;;;;;;17.62;100.00;99984.16;5077548;28;20195;-74
2022/10/23 10:10:46;;;;;;;3.77;2.00;;;;;;;17.59;100.00;99985.16;5069771;28;20575;-74
2022/10/23 10:13:32;;;;;;;2.13;1.70;;;;;;;17.59;100.00;99976.44;5067522;28;20334;-75
2022/10/23 10:16:02;;;;;;;2.57;1.93;;;;;;;17.58;100.00;99974.72;5067182;28;20216;-74
2022/10/23 10:18:35;;;;;;;2.20;1.83;;;;;;;17.59;100.00;99956.38;5072824;28;20565;-75
2022/10/23 10:21:20;;;;;;;2.77;1.90;;;;;;;17.70;100.00;99948.00;5072700;28;20220;-74
2022/10/23 10:24:07;;;;;;;2.37;1.63;;;;;;;17.88;100.00;99940.28;5071249;28;20177;-75
2022/10/23 10:26:59;;;;;;;2.87;1.50;;;;;;;18.08;100.00;99944.63;5069837;28;20188;-75
2022/10/23 10:29:30;;;;;;;3.03;1.90;;;;;;;18.19;100.00;99947.63;5065654;28;21842;-75
2022/10/23 10:32:16;;;;;;;3.30;1.27;;;;;;;18.20;100.00;99946.72;5068452;28;20942;-76
2022/10/23 10:34:50;;;;;;;1.93;1.20;;;;;;;18.18;100.00;99959.03;5072000;28;20220;-75
2022/10/23 10:37:33;;;;;;;1.50;1.20;;;;;;;18.23;100.00;99949.16;5082156;28;20227;-76
2022/10/23 10:40:26;;;;;;;1.50;1.33;;;;;;;18.38;100.00;99952.84;5103272;28;20176;-74
2022/10/23 10:42:54;;;;;;;1.40;1.30;;;;;;;18.61;100.00;99960.53;5078743;28;20581;-75
2022/10/23 10:45:36;;;;;;;1.40;1.00;;;;;;;18.91;100.00;99959.97;5085000;28;20173;-75
2022/10/23 10:48:36;;;;;;;1.80;1.03;;;;;;;19.28;100.00;99960.81;5080235;28;20197;-75
2022/10/23 10:51:06;;;;;;;1.77;1.10;;;;;;;19.41;100.00;99940.03;5078393;28;20764;-74
2022/10/23 10:53:57;;;;;;;1.17;1.00;;;;;;;19.37;100.00;99928.00;5072198;28;20210;-75
2022/10/23 10:56:26;;;;;;;1.30;1.20;;;;;;;19.37;100.00;99931.47;5073852;28;20196;-75
2022/10/23 10:58:56;;;;;;;1.20;1.00;;;;;;;19.44;100.00;99921.50;5071571;28;20242;-74
2022/10/23 11:01:33;;;;;;;1.43;1.20;;;;;;;19.42;100.00;99908.47;5072281;28;20216;-75
2022/10/23 11:04:35;;;;;;;1.10;1.00;;;;;;;19.32;100.00;99905.47;5074483;28;20181;-76
2022/10/23 11:07:06;;;;;;;1.37;0.90;;;;;;;19.25;100.00;99901.47;5069176;28;20366;-75
2022/10/23 11:09:32;;;;;;;1.37;1.27;;;;;;;19.21;100.00;99899.09;5071391;28;20259;-75
2022/10/23 11:11:57;;;;;;;1.20;1.10;;;;;;;19.21;100.00;99896.47;5074395;28;20213;-74
2022/10/23 11:14:26;;;;;;;1.27;1.17;;;;;;;19.27;100.00;99890.91;5069897;28;20286;-74
2022/10/23 11:17:17;;;;;;;1.20;1.10;;;;;;;19.31;100.00;99884.56;5079025;28;20196;-77
2022/10/23 11:19:48;;;;;;;1.07;0.93;;;;;;;19.38;100.00;99880.69;5079784;28;20189;-75
2022/10/23 11:22:30;;;;;;;0.70;0.70;;;;;;;19.49;100.00;99878.34;5075130;28;20292;-75
2022/10/23 11:25:17;;;;;;;1.53;1.03;;;;;;;19.52;100.00;99879.13;5068062;28;20200;-76
2022/10/23 11:27:58;;;;;;;1.73;0.80;;;;;;;19.63;100.00;99879.38;5071542;28;20204;-74
2022/10/23 11:30:42;;;;;;;1.93;1.20;;;;;;;19.78;100.00;99883.00;5070033;28;20189;-75
2022/10/23 11:33:11;;;;;;;0.97;0.90;;;;;;;19.91;100.00;99880.56;5069857;28;20197;-75